sensor_id;sensor_type;location;lat;lon;timestamp;P1;durP1;ratioP1;P2;durP2;ratioP2
43511;SDS011;34054;52.100;5.116;2023-04-24T00:00:10;5.45;;;2.70;;
43511;SDS011;34054;52.100;5.116;2023-04-24T00:00:43;3.75;;;3.35;;
43511;SDS011;34054;52.100;5.116;2023-04-24T00:01:15;2.97;;;2.22;;
43511;SDS011;34054;52.100;5.116;2023-04-24T00:01:47;3.63;;;3.10;;
43511;SDS011;34054;52.100;5.116;2023-04-24T00:02:19;6.35;;;3.25;;
43511;SDS011;34054;52.100;5.116;2023-04-24T00:02:50;7.57;;;2.33;;
43511;SDS011;34054;52.100;5.116;2023-04-24T00:03:22;2.60;;;1.90;;
43511;SDS011;34054;52.100;5.116;2023-04-24T00:03:53;2.40;;;2.20;;
43511;SDS011;34054;52.100;5.116;2023-04-24T00:04:25;3.85;;;2.58;;
43511;SDS011;34054;52.100;5.116;2023-04-24T00:04:57;5.88;;;2.15;;
43511;SDS011;34054;52.100;5.116;2023-04-24T00:05:33;2.15;;;1.88;;
43511;SDS011;34054;52.100;5.116;2023-04-24T00:06:04;3.00;;;2.22;;
43511;SDS011;34054;52.100;5.116;2023-04-24T00:06:40;1.67;;;1.45;;
43511;SDS011;34054;52.100;5.116;2023-04-24T00:07:13;2.35;;;1.27;;
43511;SDS011;34054;52.100;5.116;2023-04-24T00:07:47;4.90;;;2.05;;
43511;SDS011;34054;52.100;5.116;2023-04-24T00:08:18;3.90;;;2.13;;
43511;SDS011;34054;52.100;5.116;2023-04-24T00:08:49;1.73;;;1.58;;
43511;SDS011;34054;52.100;5.116;2023-04-24T00:09:21;1.77;;;1.23;;
43511;SDS011;34054;52.100;5.116;2023-04-24T00:09:53;1.63;;;1.50;;
43511;SDS011;34054;52.100;5.116;2023-04-24T00:10:24;1.98;;;1.77;;
43511;SDS011;34054;52.100;5.116;2023-04-24T00:10:56;2.13;;;1.65;;
43511;SDS011;34054;52.100;5.116;2023-04-24T00:11:29;3.63;;;1.60;;
43511;SDS011;34054;52.100;5.116;2023-04-24T00:12:00;2.05;;;1.75;;
43511;SDS011;34054;52.100;5.116;2023-04-24T00:12:34;2.45;;;1.88;;
43511;SDS011;34054;52.100;5.116;2023-04-24T00:13:06;2.15;;;1.58;;
43511;SDS011;34054;52.100;5.116;2023-04-24T00:13:38;3.40;;;2.17;;
43511;SDS011;34054;52.100;5.116;2023-04-24T00:14:10;4.47;;;2.85;;
43511;SDS011;34054;52.100;5.116;2023-04-24T00:14:42;1.73;;;1.60;;
43511;SDS011;34054;52.100;5.116;2023-04-24T00:15:13;3.53;;;1.92;;
43511;SDS011;34054;52.100;5.116;2023-04-24T00:15:44;4.63;;;3.40;;
43511;SDS011;34054;52.100;5.116;2023-04-24T00:16:17;2.20;;;1.90;;
43511;SDS011;34054;52.100;5.116;2023-04-24T00:16:48;3.80;;;1.75;;
43511;SDS011;34054;52.100;5.116;2023-04-24T00:17:19;3.33;;;2.63;;
43511;SDS011;34054;52.100;5.116;2023-04-24T00:17:51;3.40;;;2.38;;
43511;SDS011;34054;52.100;5.116;2023-04-24T00:18:23;3.63;;;2.05;;
43511;SDS011;34054;52.100;5.116;2023-04-24T00:18:55;2.90;;;2.42;;
43511;SDS011;34054;52.100;5.116;2023-04-24T00:19:27;2.80;;;2.25;;
43511;SDS011;34054;52.100;5.116;2023-04-24T00:19:59;3.63;;;2.42;;
43511;SDS011;34054;52.100;5.116;2023-04-24T00:20:30;4.68;;;3.00;;
43511;SDS011;34054;52.100;5.116;2023-04-24T00:21:03;2.03;;;1.55;;
43511;SDS011;34054;52.100;5.116;2023-04-24T00:21:34;3.58;;;2.33;;
43511;SDS011;34054;52.100;5.116;2023-04-24T00:22:07;5.00;;;2.78;;
43511;SDS011;34054;52.100;5.116;2023-04-24T00:22:39;3.45;;;2.90;;
43511;SDS011;34054;52.100;5.116;2023-04-24T00:23:10;2.53;;;2.00;;
43511;SDS011;34054;52.100;5.116;2023-04-24T00:23:41;4.18;;;2.63;;
43511;SDS011;34054;52.100;5.116;2023-04-24T00:24:14;4.22;;;2.03;;
43511;SDS011;34054;52.100;5.116;2023-04-24T00:24:45;3.08;;;2.50;;
43511;SDS011;34054;52.100;5.116;2023-04-24T00:25:17;3.85;;;2.67;;
43511;SDS011;34054;52.100;5.116;2023-04-24T00:25:49;2.55;;;2.03;;
43511;SDS011;34054;52.100;5.116;2023-04-24T00:26:20;4.55;;;2.20;;
43511;SDS011;34054;52.100;5.116;2023-04-24T00:26:51;3.42;;;2.85;;
43511;SDS011;34054;52.100;5.116;2023-04-24T00:27:23;2.45;;;1.70;;
43511;SDS011;34054;52.100;5.116;2023-04-24T00:27:55;2.15;;;1.63;;
43511;SDS011;34054;52.100;5.116;2023-04-24T00:28:26;2.97;;;1.95;;
43511;SDS011;34054;52.100;5.116;2023-04-24T00:28:57;3.45;;;2.58;;
43511;SDS011;34054;52.100;5.116;2023-04-24T00:29:29;3.63;;;2.72;;
43511;SDS011;34054;52.100;5.116;2023-04-24T00:30:00;3.22;;;2.58;;
43511;SDS011;34054;52.100;5.116;2023-04-24T00:30:31;3.65;;;2.58;;
43511;SDS011;34054;52.100;5.116;2023-04-24T00:31:04;4.40;;;2.38;;
43511;SDS011;34054;52.100;5.116;2023-04-24T00:31:35;4.57;;;2.20;;
43511;SDS011;34054;52.100;5.116;2023-04-24T00:32:06;4.30;;;2.28;;
43511;SDS011;34054;52.100;5.116;2023-04-24T00:32:38;4.15;;;1.83;;
43511;SDS011;34054;52.100;5.116;2023-04-24T00:33:09;2.53;;;2.20;;
43511;SDS011;34054;52.100;5.116;2023-04-24T00:33:41;6.63;;;2.17;;
43511;SDS011;34054;52.100;5.116;2023-04-24T00:34:13;3.35;;;2.28;;
43511;SDS011;34054;52.100;5.116;2023-04-24T00:34:44;3.17;;;2.28;;
43511;SDS011;34054;52.100;5.116;2023-04-24T00:35:15;3.03;;;2.38;;
43511;SDS011;34054;52.100;5.116;2023-04-24T00:35:46;5.65;;;2.13;;
43511;SDS011;34054;52.100;5.116;2023-04-24T00:36:18;5.35;;;2.53;;
43511;SDS011;34054;52.100;5.116;2023-04-24T00:36:51;2.78;;;1.73;;
43511;SDS011;34054;52.100;5.116;2023-04-24T00:37:24;3.53;;;2.33;;
43511;SDS011;34054;52.100;5.116;2023-04-24T00:37:56;2.30;;;2.10;;
43511;SDS011;34054;52.100;5.116;2023-04-24T00:38:27;4.20;;;2.97;;
43511;SDS011;34054;52.100;5.116;2023-04-24T00:38:58;3.83;;;2.53;;
43511;SDS011;34054;52.100;5.116;2023-04-24T00:39:30;4.00;;;2.60;;
43511;SDS011;34054;52.100;5.116;2023-04-24T00:40:02;3.75;;;2.05;;
43511;SDS011;34054;52.100;5.116;2023-04-24T00:40:33;3.00;;;2.67;;
43511;SDS011;34054;52.100;5.116;2023-04-24T00:41:05;3.10;;;2.17;;
43511;SDS011;34054;52.100;5.116;2023-04-24T00:41:37;4.13;;;2.30;;
43511;SDS011;34054;52.100;5.116;2023-04-24T00:42:09;3.33;;;2.85;;
43511;SDS011;34054;52.100;5.116;2023-04-24T00:42:41;4.22;;;2.85;;
43511;SDS011;34054;52.100;5.116;2023-04-24T00:43:13;5.47;;;3.25;;
43511;SDS011;34054;52.100;5.116;2023-04-24T00:43:44;4.32;;;2.25;;
43511;SDS011;34054;52.100;5.116;2023-04-24T00:44:17;3.63;;;2.85;;
43511;SDS011;34054;52.100;5.116;2023-04-24T00:44:48;4.88;;;3.53;;
43511;SDS011;34054;52.100;5.116;2023-04-24T00:45:19;4.60;;;4.13;;
43511;SDS011;34054;52.100;5.116;2023-04-24T00:45:51;6.05;;;3.30;;
43511;SDS011;34054;52.100;5.116;2023-04-24T00:46:23;3.35;;;2.75;;
43511;SDS011;34054;52.100;5.116;2023-04-24T00:46:54;3.85;;;3.45;;
43511;SDS011;34054;52.100;5.116;2023-04-24T00:47:26;4.50;;;3.50;;
43511;SDS011;34054;52.100;5.116;2023-04-24T00:47:58;7.40;;;4.28;;
43511;SDS011;34054;52.100;5.116;2023-04-24T00:48:30;3.83;;;2.95;;
43511;SDS011;34054;52.100;5.116;2023-04-24T00:49:03;3.83;;;3.33;;
43511;SDS011;34054;52.100;5.116;2023-04-24T00:49:35;4.90;;;4.40;;
43511;SDS011;34054;52.100;5.116;2023-04-24T00:50:07;3.72;;;3.40;;
43511;SDS011;34054;52.100;5.116;2023-04-24T00:50:38;3.78;;;3.03;;
43511;SDS011;34054;52.100;5.116;2023-04-24T00:51:11;3.83;;;3.40;;
43511;SDS011;34054;52.100;5.116;2023-04-24T00:51:42;4.40;;;3.97;;
43511;SDS011;34054;52.100;5.116;2023-04-24T00:52:16;6.72;;;4.65;;
43511;SDS011;34054;52.100;5.116;2023-04-24T00:52:49;5.57;;;5.03;;
43511;SDS011;34054;52.100;5.116;2023-04-24T00:53:21;5.22;;;4.15;;
43511;SDS011;34054;52.100;5.116;2023-04-24T00:53:52;4.25;;;3.60;;
43511;SDS011;34054;52.100;5.116;2023-04-24T00:54:25;6.30;;;4.72;;
43511;SDS011;34054;52.100;5.116;2023-04-24T00:54:56;5.25;;;4.75;;
43511;SDS011;34054;52.100;5.116;2023-04-24T00:55:27;7.10;;;5.30;;
43511;SDS011;34054;52.100;5.116;2023-04-24T00:55:59;5.90;;;4.07;;
43511;SDS011;34054;52.100;5.116;2023-04-24T00:56:31;4.78;;;4.20;;
43511;SDS011;34054;52.100;5.116;2023-04-24T00:57:02;6.90;;;6.20;;
43511;SDS011;34054;52.100;5.116;2023-04-24T00:57:35;11.50;;;5.05;;
43511;SDS011;34054;52.100;5.116;2023-04-24T00:58:06;5.35;;;4.75;;
43511;SDS011;34054;52.100;5.116;2023-04-24T00:58:38;6.43;;;5.22;;
43511;SDS011;34054;52.100;5.116;2023-04-24T00:59:10;8.50;;;6.57;;
43511;SDS011;34054;52.100;5.116;2023-04-24T00:59:42;8.50;;;6.00;;
43511;SDS011;34054;52.100;5.116;2023-04-24T01:00:14;12.70;;;5.60;;
43511;SDS011;34054;52.100;5.116;2023-04-24T01:00:47;6.65;;;5.85;;
43511;SDS011;34054;52.100;5.116;2023-04-24T01:01:19;7.05;;;6.35;;
43511;SDS011;34054;52.100;5.116;2023-04-24T01:01:51;6.05;;;5.50;;
43511;SDS011;34054;52.100;5.116;2023-04-24T01:02:24;9.68;;;8.18;;
43511;SDS011;34054;52.100;5.116;2023-04-24T01:02:57;8.48;;;6.75;;
43511;SDS011;34054;52.100;5.116;2023-04-24T01:03:30;8.45;;;7.60;;
43511;SDS011;34054;52.100;5.116;2023-04-24T01:04:03;8.65;;;7.75;;
43511;SDS011;34054;52.100;5.116;2023-04-24T01:04:34;7.90;;;7.15;;
43511;SDS011;34054;52.100;5.116;2023-04-24T01:05:07;7.68;;;6.90;;
43511;SDS011;34054;52.100;5.116;2023-04-24T01:05:38;7.78;;;6.15;;
43511;SDS011;34054;52.100;5.116;2023-04-24T01:06:10;10.88;;;6.88;;
43511;SDS011;34054;52.100;5.116;2023-04-24T01:06:42;7.72;;;6.95;;
43511;SDS011;34054;52.100;5.116;2023-04-24T01:07:15;8.52;;;7.82;;
43511;SDS011;34054;52.100;5.116;2023-04-24T01:07:49;10.77;;;7.88;;
43511;SDS011;34054;52.100;5.116;2023-04-24T01:08:21;7.35;;;6.65;;
43511;SDS011;34054;52.100;5.116;2023-04-24T01:08:55;8.15;;;7.45;;
43511;SDS011;34054;52.100;5.116;2023-04-24T01:09:26;7.13;;;6.40;;
43511;SDS011;34054;52.100;5.116;2023-04-24T01:09:58;6.68;;;6.15;;
43511;SDS011;34054;52.100;5.116;2023-04-24T01:10:29;9.35;;;7.82;;
43511;SDS011;34054;52.100;5.116;2023-04-24T01:11:03;7.70;;;7.00;;
43511;SDS011;34054;52.100;5.116;2023-04-24T01:11:36;8.13;;;7.45;;
43511;SDS011;34054;52.100;5.116;2023-04-24T01:12:08;7.45;;;6.75;;
43511;SDS011;34054;52.100;5.116;2023-04-24T01:12:39;8.70;;;7.90;;
43511;SDS011;34054;52.100;5.116;2023-04-24T01:13:11;8.32;;;7.53;;
43511;SDS011;34054;52.100;5.116;2023-04-24T01:13:43;8.05;;;7.32;;
43511;SDS011;34054;52.100;5.116;2023-04-24T01:14:16;7.88;;;7.18;;
43511;SDS011;34054;52.100;5.116;2023-04-24T01:14:47;7.13;;;6.38;;
43511;SDS011;34054;52.100;5.116;2023-04-24T01:15:19;14.63;;;7.07;;
43511;SDS011;34054;52.100;5.116;2023-04-24T01:15:50;7.65;;;6.95;;
43511;SDS011;34054;52.100;5.116;2023-04-24T01:16:22;9.20;;;8.32;;
43511;SDS011;34054;52.100;5.116;2023-04-24T01:16:54;8.60;;;7.68;;
43511;SDS011;34054;52.100;5.116;2023-04-24T01:17:25;8.57;;;7.78;;
43511;SDS011;34054;52.100;5.116;2023-04-24T01:17:56;9.35;;;8.45;;
43511;SDS011;34054;52.100;5.116;2023-04-24T01:18:28;8.55;;;7.85;;
43511;SDS011;34054;52.100;5.116;2023-04-24T01:18:59;12.77;;;7.93;;
43511;SDS011;34054;52.100;5.116;2023-04-24T01:19:31;7.47;;;6.82;;
43511;SDS011;34054;52.100;5.116;2023-04-24T01:20:03;7.85;;;7.05;;
43511;SDS011;34054;52.100;5.116;2023-04-24T01:20:36;9.15;;;8.35;;
43511;SDS011;34054;52.100;5.116;2023-04-24T01:21:11;7.65;;;6.95;;
43511;SDS011;34054;52.100;5.116;2023-04-24T01:21:44;7.85;;;7.05;;
43511;SDS011;34054;52.100;5.116;2023-04-24T01:22:19;10.70;;;8.00;;
43511;SDS011;34054;52.100;5.116;2023-04-24T01:22:52;10.32;;;9.43;;
43511;SDS011;34054;52.100;5.116;2023-04-24T01:23:25;9.27;;;8.25;;
43511;SDS011;34054;52.100;5.116;2023-04-24T01:23:57;9.20;;;8.40;;
43511;SDS011;34054;52.100;5.116;2023-04-24T01:24:29;9.13;;;8.25;;
43511;SDS011;34054;52.100;5.116;2023-04-24T01:25:01;8.82;;;8.05;;
43511;SDS011;34054;52.100;5.116;2023-04-24T01:25:33;10.50;;;9.18;;
43511;SDS011;34054;52.100;5.116;2023-04-24T01:26:06;8.52;;;7.72;;
43511;SDS011;34054;52.100;5.116;2023-04-24T01:26:37;8.00;;;7.28;;
43511;SDS011;34054;52.100;5.116;2023-04-24T01:27:09;11.60;;;8.98;;
43511;SDS011;34054;52.100;5.116;2023-04-24T01:27:41;10.18;;;9.25;;
43511;SDS011;34054;52.100;5.116;2023-04-24T01:28:13;10.25;;;9.35;;
43511;SDS011;34054;52.100;5.116;2023-04-24T01:28:45;11.10;;;10.00;;
43511;SDS011;34054;52.100;5.116;2023-04-24T01:29:16;9.73;;;8.75;;
43511;SDS011;34054;52.100;5.116;2023-04-24T01:29:48;10.57;;;9.48;;
43511;SDS011;34054;52.100;5.116;2023-04-24T01:30:22;12.57;;;8.68;;
43511;SDS011;34054;52.100;5.116;2023-04-24T01:30:53;10.10;;;8.93;;
43511;SDS011;34054;52.100;5.116;2023-04-24T01:31:26;11.52;;;10.45;;
43511;SDS011;34054;52.100;5.116;2023-04-24T01:31:57;10.40;;;9.40;;
43511;SDS011;34054;52.100;5.116;2023-04-24T01:32:29;10.02;;;8.02;;
43511;SDS011;34054;52.100;5.116;2023-04-24T01:33:01;11.70;;;9.13;;
43511;SDS011;34054;52.100;5.116;2023-04-24T01:33:33;9.90;;;9.00;;
43511;SDS011;34054;52.100;5.116;2023-04-24T01:34:04;9.32;;;8.13;;
43511;SDS011;34054;52.100;5.116;2023-04-24T01:34:36;11.52;;;9.40;;
43511;SDS011;34054;52.100;5.116;2023-04-24T01:35:09;10.10;;;9.30;;
43511;SDS011;34054;52.100;5.116;2023-04-24T01:35:40;10.38;;;9.27;;
43511;SDS011;34054;52.100;5.116;2023-04-24T01:36:12;8.30;;;7.53;;
43511;SDS011;34054;52.100;5.116;2023-04-24T01:36:45;9.90;;;9.00;;
43511;SDS011;34054;52.100;5.116;2023-04-24T01:37:17;11.40;;;10.30;;
43511;SDS011;34054;52.100;5.116;2023-04-24T01:37:49;11.38;;;10.38;;
43511;SDS011;34054;52.100;5.116;2023-04-24T01:38:21;12.65;;;10.13;;
43511;SDS011;34054;52.100;5.116;2023-04-24T01:38:52;9.13;;;8.30;;
43511;SDS011;34054;52.100;5.116;2023-04-24T01:39:24;10.82;;;9.77;;
43511;SDS011;34054;52.100;5.116;2023-04-24T01:39:56;10.75;;;9.52;;
43511;SDS011;34054;52.100;5.116;2023-04-24T01:40:28;9.05;;;8.15;;
43511;SDS011;34054;52.100;5.116;2023-04-24T01:40:59;9.73;;;8.77;;
43511;SDS011;34054;52.100;5.116;2023-04-24T01:41:31;10.85;;;9.77;;
43511;SDS011;34054;52.100;5.116;2023-04-24T01:42:04;10.60;;;8.85;;
43511;SDS011;34054;52.100;5.116;2023-04-24T01:42:36;10.45;;;9.35;;
43511;SDS011;34054;52.100;5.116;2023-04-24T01:43:07;9.45;;;8.55;;
43511;SDS011;34054;52.100;5.116;2023-04-24T01:43:40;9.25;;;8.45;;
43511;SDS011;34054;52.100;5.116;2023-04-24T01:44:11;15.38;;;9.95;;
43511;SDS011;34054;52.100;5.116;2023-04-24T01:44:42;9.68;;;8.85;;
43511;SDS011;34054;52.100;5.116;2023-04-24T01:45:15;9.82;;;8.93;;
43511;SDS011;34054;52.100;5.116;2023-04-24T01:45:46;9.48;;;8.30;;
43511;SDS011;34054;52.100;5.116;2023-04-24T01:46:17;12.52;;;10.48;;
43511;SDS011;34054;52.100;5.116;2023-04-24T01:46:50;10.38;;;9.48;;
43511;SDS011;34054;52.100;5.116;2023-04-24T01:47:21;11.35;;;10.35;;
43511;SDS011;34054;52.100;5.116;2023-04-24T01:47:53;14.30;;;9.70;;
43511;SDS011;34054;52.100;5.116;2023-04-24T01:48:26;10.60;;;9.60;;
43511;SDS011;34054;52.100;5.116;2023-04-24T01:48:58;11.65;;;10.60;;
43511;SDS011;34054;52.100;5.116;2023-04-24T01:49:31;11.50;;;8.63;;
43511;SDS011;34054;52.100;5.116;2023-04-24T01:50:03;11.00;;;9.63;;
43511;SDS011;34054;52.100;5.116;2023-04-24T01:50:36;10.70;;;9.65;;
43511;SDS011;34054;52.100;5.116;2023-04-24T01:51:07;11.32;;;10.27;;
43511;SDS011;34054;52.100;5.116;2023-04-24T01:51:38;9.63;;;8.27;;
43511;SDS011;34054;52.100;5.116;2023-04-24T01:52:11;12.45;;;10.35;;
43511;SDS011;34054;52.100;5.116;2023-04-24T01:52:42;11.45;;;10.43;;
43511;SDS011;34054;52.100;5.116;2023-04-24T01:53:15;9.07;;;8.30;;
43511;SDS011;34054;52.100;5.116;2023-04-24T01:53:46;9.98;;;9.10;;
43511;SDS011;34054;52.100;5.116;2023-04-24T01:54:18;10.90;;;9.35;;
43511;SDS011;34054;52.100;5.116;2023-04-24T01:54:50;7.85;;;7.18;;
43511;SDS011;34054;52.100;5.116;2023-04-24T01:55:21;9.43;;;8.40;;
43511;SDS011;34054;52.100;5.116;2023-04-24T01:55:53;10.25;;;9.35;;
43511;SDS011;34054;52.100;5.116;2023-04-24T01:56:24;11.45;;;8.45;;
43511;SDS011;34054;52.100;5.116;2023-04-24T01:56:59;10.98;;;8.85;;
43511;SDS011;34054;52.100;5.116;2023-04-24T01:57:32;9.02;;;8.20;;
43511;SDS011;34054;52.100;5.116;2023-04-24T01:58:04;9.88;;;7.75;;
43511;SDS011;34054;52.100;5.116;2023-04-24T01:58:36;8.70;;;7.88;;
43511;SDS011;34054;52.100;5.116;2023-04-24T01:59:09;9.02;;;7.93;;
43511;SDS011;34054;52.100;5.116;2023-04-24T01:59:41;8.30;;;7.45;;
43511;SDS011;34054;52.100;5.116;2023-04-24T02:00:12;9.73;;;7.45;;
43511;SDS011;34054;52.100;5.116;2023-04-24T02:00:45;9.45;;;8.43;;
43511;SDS011;34054;52.100;5.116;2023-04-24T02:01:17;10.25;;;8.05;;
43511;SDS011;34054;52.100;5.116;2023-04-24T02:01:49;8.55;;;7.60;;
43511;SDS011;34054;52.100;5.116;2023-04-24T02:02:21;9.73;;;8.82;;
43511;SDS011;34054;52.100;5.116;2023-04-24T02:02:54;8.65;;;7.75;;
43511;SDS011;34054;52.100;5.116;2023-04-24T02:03:25;8.80;;;7.93;;
43511;SDS011;34054;52.100;5.116;2023-04-24T02:03:58;8.77;;;7.93;;
43511;SDS011;34054;52.100;5.116;2023-04-24T02:04:29;8.18;;;7.38;;
43511;SDS011;34054;52.100;5.116;2023-04-24T02:05:00;7.60;;;6.90;;
43511;SDS011;34054;52.100;5.116;2023-04-24T02:05:33;8.73;;;7.93;;
43511;SDS011;34054;52.100;5.116;2023-04-24T02:06:04;8.80;;;8.02;;
43511;SDS011;34054;52.100;5.116;2023-04-24T02:06:35;8.15;;;7.35;;
43511;SDS011;34054;52.100;5.116;2023-04-24T02:07:07;12.77;;;8.23;;
43511;SDS011;34054;52.100;5.116;2023-04-24T02:07:39;9.45;;;8.55;;
43511;SDS011;34054;52.100;5.116;2023-04-24T02:08:10;9.63;;;8.82;;
43511;SDS011;34054;52.100;5.116;2023-04-24T02:08:43;8.55;;;7.75;;
43511;SDS011;34054;52.100;5.116;2023-04-24T02:09:15;9.63;;;8.73;;
43511;SDS011;34054;52.100;5.116;2023-04-24T02:09:46;8.00;;;7.07;;
43511;SDS011;34054;52.100;5.116;2023-04-24T02:10:17;10.25;;;8.27;;
43511;SDS011;34054;52.100;5.116;2023-04-24T02:10:49;10.10;;;7.13;;
43511;SDS011;34054;52.100;5.116;2023-04-24T02:11:21;9.55;;;8.18;;
43511;SDS011;34054;52.100;5.116;2023-04-24T02:11:52;8.85;;;7.95;;
43511;SDS011;34054;52.100;5.116;2023-04-24T02:12:24;8.70;;;7.90;;
43511;SDS011;34054;52.100;5.116;2023-04-24T02:12:55;11.13;;;9.25;;
43511;SDS011;34054;52.100;5.116;2023-04-24T02:13:26;7.95;;;7.15;;
43511;SDS011;34054;52.100;5.116;2023-04-24T02:13:58;9.23;;;8.32;;
43511;SDS011;34054;52.100;5.116;2023-04-24T02:14:30;8.13;;;7.32;;
43511;SDS011;34054;52.100;5.116;2023-04-24T02:15:01;9.88;;;8.80;;
43511;SDS011;34054;52.100;5.116;2023-04-24T02:15:33;7.85;;;7.15;;
43511;SDS011;34054;52.100;5.116;2023-04-24T02:16:06;8.75;;;7.93;;
43511;SDS011;34054;52.100;5.116;2023-04-24T02:16:38;11.25;;;8.52;;
43511;SDS011;34054;52.100;5.116;2023-04-24T02:17:11;8.05;;;7.25;;
43511;SDS011;34054;52.100;5.116;2023-04-24T02:17:43;8.30;;;7.43;;
43511;SDS011;34054;52.100;5.116;2023-04-24T02:18:14;8.40;;;7.63;;
43511;SDS011;34054;52.100;5.116;2023-04-24T02:18:47;7.68;;;6.97;;
43511;SDS011;34054;52.100;5.116;2023-04-24T02:19:18;9.38;;;8.45;;
43511;SDS011;34054;52.100;5.116;2023-04-24T02:19:50;10.10;;;9.05;;
43511;SDS011;34054;52.100;5.116;2023-04-24T02:20:22;8.95;;;7.90;;
43511;SDS011;34054;52.100;5.116;2023-04-24T02:20:53;8.93;;;8.13;;
43511;SDS011;34054;52.100;5.116;2023-04-24T02:21:25;10.52;;;8.80;;
43511;SDS011;34054;52.100;5.116;2023-04-24T02:21:58;9.35;;;8.43;;
43511;SDS011;34054;52.100;5.116;2023-04-24T02:22:29;8.95;;;8.13;;
43511;SDS011;34054;52.100;5.116;2023-04-24T02:23:00;8.52;;;7.82;;
43511;SDS011;34054;52.100;5.116;2023-04-24T02:23:32;9.43;;;7.90;;
43511;SDS011;34054;52.100;5.116;2023-04-24T02:24:04;8.38;;;7.63;;
43511;SDS011;34054;52.100;5.116;2023-04-24T02:24:36;7.15;;;6.45;;
43511;SDS011;34054;52.100;5.116;2023-04-24T02:25:08;9.32;;;8.48;;
43511;SDS011;34054;52.100;5.116;2023-04-24T02:25:39;8.75;;;7.88;;
43511;SDS011;34054;52.100;5.116;2023-04-24T02:26:11;7.40;;;6.70;;
43511;SDS011;34054;52.100;5.116;2023-04-24T02:26:42;9.45;;;8.55;;
43511;SDS011;34054;52.100;5.116;2023-04-24T02:27:14;9.25;;;8.27;;
43511;SDS011;34054;52.100;5.116;2023-04-24T02:27:45;9.45;;;8.55;;
43511;SDS011;34054;52.100;5.116;2023-04-24T02:28:16;7.38;;;6.75;;
43511;SDS011;34054;52.100;5.116;2023-04-24T02:28:49;10.93;;;8.18;;
43511;SDS011;34054;52.100;5.116;2023-04-24T02:29:20;8.50;;;7.32;;
43511;SDS011;34054;52.100;5.116;2023-04-24T02:29:51;9.38;;;8.32;;
43511;SDS011;34054;52.100;5.116;2023-04-24T02:30:23;10.20;;;7.95;;
43511;SDS011;34054;52.100;5.116;2023-04-24T02:30:54;8.63;;;7.82;;
43511;SDS011;34054;52.100;5.116;2023-04-24T02:31:25;8.20;;;7.40;;
43511;SDS011;34054;52.100;5.116;2023-04-24T02:31:57;8.95;;;8.05;;
43511;SDS011;34054;52.100;5.116;2023-04-24T02:32:29;9.05;;;8.25;;
43511;SDS011;34054;52.100;5.116;2023-04-24T02:33:01;9.98;;;7.40;;
43511;SDS011;34054;52.100;5.116;2023-04-24T02:33:33;9.50;;;8.70;;
43511;SDS011;34054;52.100;5.116;2023-04-24T02:34:05;8.70;;;7.78;;
43511;SDS011;34054;52.100;5.116;2023-04-24T02:34:37;8.10;;;7.40;;
43511;SDS011;34054;52.100;5.116;2023-04-24T02:35:09;10.32;;;6.90;;
43511;SDS011;34054;52.100;5.116;2023-04-24T02:35:40;8.60;;;7.05;;
43511;SDS011;34054;52.100;5.116;2023-04-24T02:36:11;8.68;;;7.53;;
43511;SDS011;34054;52.100;5.116;2023-04-24T02:36:44;8.50;;;7.70;;
43511;SDS011;34054;52.100;5.116;2023-04-24T02:37:15;6.15;;;5.63;;
43511;SDS011;34054;52.100;5.116;2023-04-24T02:37:46;9.18;;;7.13;;
43511;SDS011;34054;52.100;5.116;2023-04-24T02:38:19;7.70;;;7.00;;
43511;SDS011;34054;52.100;5.116;2023-04-24T02:38:50;9.52;;;7.88;;
43511;SDS011;34054;52.100;5.116;2023-04-24T02:39:22;7.68;;;6.30;;
43511;SDS011;34054;52.100;5.116;2023-04-24T02:39:55;7.95;;;7.15;;
43511;SDS011;34054;52.100;5.116;2023-04-24T02:40:26;8.27;;;7.50;;
43511;SDS011;34054;52.100;5.116;2023-04-24T02:40:57;9.82;;;7.18;;
43511;SDS011;34054;52.100;5.116;2023-04-24T02:41:29;6.88;;;6.28;;
43511;SDS011;34054;52.100;5.116;2023-04-24T02:42:03;9.38;;;7.88;;
43511;SDS011;34054;52.100;5.116;2023-04-24T02:42:34;7.95;;;7.25;;
43511;SDS011;34054;52.100;5.116;2023-04-24T02:43:06;12.95;;;8.73;;
43511;SDS011;34054;52.100;5.116;2023-04-24T02:43:37;7.45;;;6.60;;
43511;SDS011;34054;52.100;5.116;2023-04-24T02:44:08;9.27;;;6.70;;
43511;SDS011;34054;52.100;5.116;2023-04-24T02:44:41;9.48;;;7.80;;
43511;SDS011;34054;52.100;5.116;2023-04-24T02:45:12;8.50;;;6.55;;
43511;SDS011;34054;52.100;5.116;2023-04-24T02:45:43;7.95;;;7.25;;
43511;SDS011;34054;52.100;5.116;2023-04-24T02:46:14;7.55;;;6.63;;
43511;SDS011;34054;52.100;5.116;2023-04-24T02:46:46;11.45;;;7.05;;
43511;SDS011;34054;52.100;5.116;2023-04-24T02:47:17;9.27;;;8.48;;
43511;SDS011;34054;52.100;5.116;2023-04-24T02:47:49;6.95;;;6.30;;
43511;SDS011;34054;52.100;5.116;2023-04-24T02:48:20;10.13;;;7.32;;
43511;SDS011;34054;52.100;5.116;2023-04-24T02:48:52;8.05;;;7.13;;
43511;SDS011;34054;52.100;5.116;2023-04-24T02:49:23;7.15;;;6.32;;
43511;SDS011;34054;52.100;5.116;2023-04-24T02:49:54;6.82;;;6.13;;
43511;SDS011;34054;52.100;5.116;2023-04-24T02:50:27;8.77;;;7.95;;
43511;SDS011;34054;52.100;5.116;2023-04-24T02:50:58;8.02;;;7.20;;
43511;SDS011;34054;52.100;5.116;2023-04-24T02:51:29;6.60;;;5.95;;
43511;SDS011;34054;52.100;5.116;2023-04-24T02:52:01;8.38;;;7.68;;
43511;SDS011;34054;52.100;5.116;2023-04-24T02:52:33;7.63;;;6.97;;
43511;SDS011;34054;52.100;5.116;2023-04-24T02:53:04;7.85;;;7.05;;
43511;SDS011;34054;52.100;5.116;2023-04-24T02:53:36;8.63;;;7.82;;
43511;SDS011;34054;52.100;5.116;2023-04-24T02:54:07;7.68;;;6.97;;
43511;SDS011;34054;52.100;5.116;2023-04-24T02:54:41;8.50;;;7.25;;
43511;SDS011;34054;52.100;5.116;2023-04-24T02:55:13;8.25;;;6.50;;
43511;SDS011;34054;52.100;5.116;2023-04-24T02:55:44;7.78;;;7.07;;
43511;SDS011;34054;52.100;5.116;2023-04-24T02:56:16;8.95;;;7.90;;
43511;SDS011;34054;52.100;5.116;2023-04-24T02:56:48;7.88;;;6.90;;
43511;SDS011;34054;52.100;5.116;2023-04-24T02:57:20;7.72;;;6.95;;
43511;SDS011;34054;52.100;5.116;2023-04-24T02:57:51;8.00;;;7.30;;
43511;SDS011;34054;52.100;5.116;2023-04-24T02:58:23;7.70;;;6.90;;
43511;SDS011;34054;52.100;5.116;2023-04-24T02:58:54;9.38;;;8.48;;
43511;SDS011;34054;52.100;5.116;2023-04-24T02:59:26;8.52;;;7.72;;
43511;SDS011;34054;52.100;5.116;2023-04-24T02:59:59;8.02;;;7.32;;
43511;SDS011;34054;52.100;5.116;2023-04-24T03:00:30;9.52;;;8.70;;
43511;SDS011;34054;52.100;5.116;2023-04-24T03:01:02;8.52;;;7.63;;
43511;SDS011;34054;52.100;5.116;2023-04-24T03:01:34;14.93;;;9.48;;
43511;SDS011;34054;52.100;5.116;2023-04-24T03:02:05;8.95;;;8.05;;
43511;SDS011;34054;52.100;5.116;2023-04-24T03:02:37;11.43;;;8.50;;
43511;SDS011;34054;52.100;5.116;2023-04-24T03:03:09;10.02;;;8.75;;
43511;SDS011;34054;52.100;5.116;2023-04-24T03:03:40;11.70;;;8.88;;
43511;SDS011;34054;52.100;5.116;2023-04-24T03:04:11;8.68;;;7.88;;
43511;SDS011;34054;52.100;5.116;2023-04-24T03:04:42;16.30;;;8.95;;
43511;SDS011;34054;52.100;5.116;2023-04-24T03:05:14;9.52;;;8.15;;
43511;SDS011;34054;52.100;5.116;2023-04-24T03:05:46;8.55;;;7.75;;
43511;SDS011;34054;52.100;5.116;2023-04-24T03:06:17;10.48;;;9.02;;
43511;SDS011;34054;52.100;5.116;2023-04-24T03:06:49;9.77;;;8.88;;
43511;SDS011;34054;52.100;5.116;2023-04-24T03:07:23;10.25;;;9.25;;
43511;SDS011;34054;52.100;5.116;2023-04-24T03:07:54;10.13;;;8.73;;
43511;SDS011;34054;52.100;5.116;2023-04-24T03:08:26;9.77;;;8.80;;
43511;SDS011;34054;52.100;5.116;2023-04-24T03:08:58;9.30;;;8.50;;
43511;SDS011;34054;52.100;5.116;2023-04-24T03:09:29;10.38;;;9.48;;
43511;SDS011;34054;52.100;5.116;2023-04-24T03:10:03;8.02;;;7.30;;
43511;SDS011;34054;52.100;5.116;2023-04-24T03:10:35;9.57;;;8.77;;
43511;SDS011;34054;52.100;5.116;2023-04-24T03:11:06;9.20;;;8.30;;
43511;SDS011;34054;52.100;5.116;2023-04-24T03:11:38;9.68;;;8.73;;